createdAt,value
2022-08-05T00:00:07.648Z,0.00
2022-08-05T00:01:20.612Z,0.00
2022-08-05T00:02:11.406Z,0.00
2022-08-05T00:03:07.794Z,0.00
2022-08-05T00:04:08.228Z,0.00
2022-08-05T00:05:07.807Z,0.00
2022-08-05T00:06:27.835Z,0.00
2022-08-05T00:07:27.274Z,0.00
2022-08-05T00:08:19.869Z,0.00
2022-08-05T00:09:12.828Z,0.00
2022-08-05T00:10:07.955Z,0.00
2022-08-05T00:11:27.998Z,0.00
2022-08-05T00:12:08.017Z,0.00
2022-08-05T00:13:08.051Z,0.00
2022-08-05T00:14:12.025Z,0.00
2022-08-05T00:15:56.201Z,0.00
2022-08-05T00:17:18.898Z,0.00
2022-08-05T00:18:08.219Z,0.00
2022-08-05T00:19:08.235Z,0.00
2022-08-05T00:20:08.266Z,0.00
2022-08-05T00:21:08.616Z,0.00
2022-08-05T00:22:11.268Z,0.00
2022-08-05T00:23:12.635Z,0.00
2022-08-05T00:24:11.123Z,0.00
2022-08-05T00:25:08.451Z,0.00
2022-08-05T00:26:08.448Z,0.00
2022-08-05T00:27:10.559Z,0.00
2022-08-05T00:28:08.511Z,0.00
2022-08-05T00:29:08.541Z,0.00
2022-08-05T00:30:11.361Z,0.00
2022-08-05T00:31:08.602Z,0.00
2022-08-05T00:32:13.553Z,0.00
2022-08-05T00:33:15.454Z,0.00
2022-08-05T00:34:56.994Z,0.00
2022-08-05T00:35:08.725Z,0.00
2022-08-05T00:36:16.581Z,0.00
2022-08-05T00:37:13.560Z,0.00
2022-08-05T00:38:09.450Z,0.00
2022-08-05T00:39:13.772Z,0.00
2022-08-05T00:40:09.494Z,0.00
2022-08-05T00:41:11.775Z,0.00
2022-08-05T00:42:08.943Z,0.00
2022-08-05T00:43:08.973Z,0.00
2022-08-05T00:44:09.004Z,0.00
2022-08-05T00:45:11.668Z,0.00
2022-08-05T00:46:09.066Z,0.00
2022-08-05T00:47:09.095Z,0.00
2022-08-05T00:48:09.522Z,0.00
2022-08-05T00:49:09.156Z,0.00
2022-08-05T00:50:09.189Z,0.00
2022-08-05T00:51:51.553Z,0.00
2022-08-05T00:52:09.250Z,0.00
2022-08-05T00:53:09.734Z,0.00
2022-08-05T00:54:09.313Z,0.00
2022-08-05T00:55:09.342Z,0.00
2022-08-05T00:56:09.373Z,0.00
2022-08-05T00:57:09.403Z,0.00
2022-08-05T00:58:11.091Z,0.00
2022-08-05T00:59:09.475Z,0.00
2022-08-05T01:00:11.161Z,0.00
2022-08-05T01:01:09.748Z,0.00
2022-08-05T01:02:09.557Z,0.00
2022-08-05T01:03:09.587Z,0.00
2022-08-05T01:04:14.258Z,0.00
2022-08-05T01:05:10.103Z,0.00
2022-08-05T01:06:14.046Z,0.00
2022-08-05T01:07:13.772Z,0.00
2022-08-05T01:08:42.059Z,0.00
2022-08-05T01:10:09.801Z,0.00
2022-08-05T01:11:09.833Z,0.00
2022-08-05T01:12:18.573Z,0.00
2022-08-05T01:13:13.215Z,0.00
2022-08-05T01:14:09.921Z,0.00
2022-08-05T01:15:35.326Z,0.00
2022-08-05T01:16:09.984Z,0.00
2022-08-05T01:17:23.070Z,0.00
2022-08-05T01:18:10.044Z,0.00
2022-08-05T01:19:10.075Z,0.00
2022-08-05T01:21:12.704Z,0.00
2022-08-05T01:22:15.502Z,0.00
2022-08-05T01:23:15.353Z,0.00
2022-08-05T01:24:13.226Z,0.00
2022-08-05T01:25:13.655Z,0.00
2022-08-05T01:26:12.863Z,0.00
2022-08-05T01:27:17.673Z,0.00
2022-08-05T01:28:12.940Z,0.00
2022-08-05T01:29:12.947Z,0.00
2022-08-05T01:30:17.870Z,0.00
2022-08-05T01:31:13.007Z,0.00
2022-08-05T01:32:18.638Z,0.00
2022-08-05T01:33:13.070Z,0.00
2022-08-05T01:34:13.099Z,0.00
2022-08-05T01:35:13.128Z,0.00
2022-08-05T01:36:16.079Z,0.00
2022-08-05T01:37:24.445Z,0.00
2022-08-05T01:38:24.687Z,0.00
2022-08-05T01:39:13.370Z,0.00
2022-08-05T01:40:13.284Z,0.00
2022-08-05T01:41:13.325Z,0.00
2022-08-05T01:42:13.689Z,0.00
2022-08-05T01:43:22.441Z,0.00
2022-08-05T01:44:13.407Z,0.00
2022-08-05T01:45:13.437Z,0.00
2022-08-05T01:46:16.646Z,0.00
2022-08-05T01:51:22.705Z,0.00
2022-08-05T01:52:22.735Z,0.00
2022-08-05T01:53:54.528Z,0.00
2022-08-05T01:54:25.700Z,0.00
2022-08-05T01:55:22.827Z,0.00
2022-08-05T01:58:11.868Z,0.00
2022-08-05T01:58:14.965Z,0.00
2022-08-05T01:58:40.673Z,0.00
2022-08-05T01:59:22.958Z,0.00
2022-08-05T02:00:30.721Z,0.00
2022-08-05T02:01:24.655Z,0.00
2022-08-05T02:02:28.439Z,0.00
2022-08-05T02:03:29.273Z,0.00
2022-08-05T02:04:23.101Z,0.00
2022-08-05T02:05:23.499Z,0.00
2022-08-05T02:06:33.772Z,0.00
2022-08-05T02:07:23.424Z,0.00
2022-08-05T02:08:31.050Z,0.00
2022-08-05T02:09:23.254Z,0.00
2022-08-05T02:10:28.414Z,0.00
2022-08-05T02:11:23.964Z,0.00
2022-08-05T02:12:23.347Z,0.00
2022-08-05T02:13:23.376Z,0.00
2022-08-05T02:14:23.408Z,0.00
2022-08-05T02:15:23.435Z,0.00
2022-08-05T02:16:23.468Z,0.00
2022-08-05T02:18:28.784Z,0.00
2022-08-05T02:18:30.352Z,0.00
2022-08-05T02:19:23.557Z,0.00
2022-08-05T02:20:23.590Z,0.00
2022-08-05T02:21:23.619Z,0.00
2022-08-05T02:22:26.545Z,0.00
2022-08-05T02:23:23.731Z,0.00
2022-08-05T02:24:23.719Z,0.00
2022-08-05T02:25:23.743Z,0.00
2022-08-05T02:26:23.772Z,0.00
2022-08-05T02:27:30.162Z,0.00
2022-08-05T02:28:28.852Z,0.00
2022-08-05T02:29:24.246Z,0.00
2022-08-05T02:30:23.897Z,0.00
2022-08-05T02:31:23.923Z,0.00
2022-08-05T02:32:30.879Z,0.00
2022-08-05T02:33:24.395Z,0.00
2022-08-05T02:34:24.016Z,0.00
2022-08-05T02:35:28.120Z,0.00
2022-08-05T02:36:24.076Z,0.00
2022-08-05T02:37:24.915Z,0.00
2022-08-05T02:38:25.466Z,0.00
2022-08-05T02:39:24.263Z,0.00
2022-08-05T02:40:24.346Z,0.00
2022-08-05T02:41:28.753Z,0.00
2022-08-05T02:42:27.641Z,0.00
2022-08-05T02:43:24.293Z,0.00
2022-08-05T02:44:24.320Z,0.00
2022-08-05T02:45:25.214Z,0.00
2022-08-05T02:46:27.527Z,0.00
2022-08-05T02:47:24.726Z,0.00
2022-08-05T02:48:29.488Z,0.00
2022-08-05T02:49:24.684Z,0.00
2022-08-05T02:51:07.054Z,0.00
2022-08-05T02:52:07.697Z,0.00
2022-08-05T02:53:07.122Z,0.00
2022-08-05T02:54:07.244Z,0.00
2022-08-05T02:55:10.896Z,0.00
2022-08-05T02:56:07.220Z,0.00
2022-08-05T02:59:47.728Z,0.00
2022-08-05T03:00:33.149Z,0.00
2022-08-05T03:01:33.305Z,0.00
2022-08-05T03:02:33.208Z,0.00
2022-08-05T03:03:33.697Z,0.00
2022-08-05T03:06:54.728Z,0.00
2022-08-05T03:06:55.813Z,0.00
2022-08-05T03:08:00.583Z,0.00
2022-08-05T03:08:33.396Z,0.00
2022-08-05T03:10:33.442Z,0.00
2022-08-05T03:11:56.655Z,0.00
2022-08-05T03:12:33.503Z,0.00
2022-08-05T03:13:51.838Z,0.00
2022-08-05T03:14:33.560Z,0.00
2022-08-05T03:15:33.854Z,0.00
2022-08-05T03:16:33.617Z,0.00
2022-08-05T03:17:33.648Z,0.00
2022-08-05T03:18:33.684Z,0.00
2022-08-05T03:19:36.034Z,0.00
2022-08-05T03:20:33.734Z,0.00
2022-08-05T03:21:41.723Z,0.00
2022-08-05T03:22:33.839Z,0.00
2022-08-05T03:23:33.826Z,0.00
2022-08-05T03:24:33.854Z,0.00
2022-08-05T03:26:04.432Z,0.00
2022-08-05T03:26:33.913Z,0.00
2022-08-05T03:27:57.925Z,0.00
2022-08-05T03:28:33.972Z,0.00
2022-08-05T03:29:44.431Z,0.00
2022-08-05T03:30:34.572Z,0.00
2022-08-05T03:31:57.122Z,0.00
2022-08-05T03:32:34.095Z,0.00
2022-08-05T03:33:51.473Z,0.00
2022-08-05T03:34:34.151Z,0.00
2022-08-05T03:35:41.111Z,0.00
2022-08-05T03:36:34.211Z,0.00
2022-08-05T03:37:45.734Z,0.00
2022-08-05T03:38:37.507Z,0.00
2022-08-05T03:39:47.192Z,4.00
2022-08-05T03:40:34.449Z,4.00
2022-08-05T03:41:38.816Z,4.00
2022-08-05T03:42:41.765Z,0.00
2022-08-05T03:44:08.461Z,4.00
2022-08-05T03:44:34.449Z,4.00
2022-08-05T03:45:57.164Z,4.00
2022-08-05T03:46:34.510Z,4.00
2022-08-05T03:47:35.493Z,8.00
2022-08-05T03:48:35.318Z,4.00
2022-08-05T03:49:51.536Z,4.00
2022-08-05T03:50:38.270Z,4.00
2022-08-05T03:52:37.667Z,8.00
2022-08-05T03:53:12.131Z,8.00
2022-08-05T03:55:50.744Z,8.00
2022-08-05T03:55:53.869Z,8.00
2022-08-05T03:56:09.453Z,12.00
2022-08-05T04:00:37.468Z,16.00
2022-08-05T04:02:38.289Z,20.00
2022-08-05T04:03:35.947Z,20.00
2022-08-05T04:29:35.789Z,88.00
2022-08-05T04:30:35.818Z,84.00
2022-08-05T04:31:38.812Z,80.00
2022-08-05T04:32:35.881Z,76.00
2022-08-05T04:34:17.871Z,80.00
2022-08-05T04:34:38.514Z,92.00
2022-08-05T04:36:15.558Z,96.00
2022-08-05T04:36:44.930Z,96.00
2022-08-05T04:38:02.636Z,104.00
2022-08-05T04:38:39.637Z,116.00
2022-08-05T04:39:36.360Z,132.00
2022-08-05T04:43:36.215Z,252.00
2022-08-05T04:44:36.238Z,316.00
2022-08-05T04:45:48.165Z,416.00
2022-08-05T04:46:36.703Z,512.00
2022-08-05T04:47:38.590Z,584.00
2022-08-05T04:48:36.353Z,624.00
2022-08-05T04:49:38.427Z,640.00
2022-08-05T04:50:37.517Z,620.00
2022-08-05T04:51:36.657Z,652.00
2022-08-05T04:52:36.690Z,728.00
2022-08-05T04:54:36.532Z,720.00
2022-08-05T04:56:11.865Z,728.00
2022-08-05T04:56:36.988Z,792.00
2022-08-05T04:57:37.253Z,856.00
2022-08-05T04:58:36.862Z,956.00
2022-08-05T04:59:38.952Z,1016.00
2022-08-05T05:00:36.728Z,1040.00
2022-08-05T05:02:07.230Z,1000.00
2022-08-05T05:02:41.821Z,828.00
2022-08-05T05:03:41.842Z,748.00
2022-08-05T05:04:38.198Z,740.00
2022-08-05T05:06:35.949Z,712.00
2022-08-05T05:06:44.768Z,704.00
2022-08-05T05:07:37.439Z,784.00
2022-08-05T05:08:36.965Z,872.00
2022-08-05T05:09:37.315Z,872.00
2022-08-05T05:10:37.021Z,744.00
2022-08-05T05:11:52.863Z,592.00
2022-08-05T05:12:37.085Z,480.00
2022-08-05T05:13:43.247Z,512.00
2022-08-05T05:14:37.147Z,628.00
2022-08-05T05:15:57.909Z,700.00
2022-08-05T05:18:37.267Z,564.00
2022-08-05T05:19:44.214Z,496.00
2022-08-05T05:21:37.359Z,592.00
2022-08-05T05:22:40.726Z,684.00
2022-08-05T05:23:39.431Z,728.00
2022-08-05T05:24:57.277Z,728.00
2022-08-05T05:25:40.920Z,772.00
2022-08-05T05:26:37.796Z,848.00
2022-08-05T05:27:45.819Z,904.00
2022-08-05T05:30:37.625Z,1012.00
2022-08-05T05:33:17.659Z,1132.00
2022-08-05T05:34:26.652Z,1060.00
2022-08-05T05:35:19.862Z,1020.00
2022-08-05T05:36:17.568Z,1032.00
2022-08-05T05:39:19.112Z,1136.00
2022-08-05T05:40:17.783Z,1188.00
2022-08-05T05:41:17.554Z,1280.00
2022-08-05T05:42:17.747Z,1372.00
2022-08-05T05:43:22.270Z,1416.00
2022-08-05T05:44:36.541Z,1432.00
2022-08-05T05:45:17.729Z,1512.00
2022-08-05T05:47:21.483Z,1720.00
2022-08-05T05:48:17.616Z,1924.00
2022-08-05T05:49:22.417Z,2080.00
2022-08-05T05:51:17.709Z,2056.00
2022-08-05T05:53:21.453Z,1848.00
2022-08-05T05:54:17.785Z,1872.00
2022-08-05T05:55:18.238Z,1868.00
2022-08-05T05:56:31.405Z,1932.00
2022-08-05T05:58:17.919Z,2148.00
2022-08-05T06:00:17.965Z,2368.00
2022-08-05T06:01:17.997Z,2324.00
2022-08-05T06:02:32.632Z,2356.00
2022-08-05T06:03:53.610Z,2472.00
2022-08-05T06:04:18.588Z,2600.00
2022-08-05T06:06:18.564Z,2600.00
2022-08-05T06:07:22.522Z,2804.00
2022-08-05T06:08:32.378Z,3132.00
2022-08-05T06:09:26.672Z,3464.00
2022-08-05T06:10:18.276Z,3852.00
2022-08-05T06:11:18.297Z,4140.00
2022-08-05T06:12:18.329Z,4368.00
2022-08-05T06:14:07.199Z,4608.00
2022-08-05T06:15:08.207Z,4936.00
2022-08-05T06:16:29.348Z,5452.00
2022-08-05T06:17:22.237Z,5732.00
2022-08-05T06:18:06.703Z,5756.00
2022-08-05T06:19:07.084Z,5524.00
2022-08-05T06:20:06.771Z,5132.00
2022-08-05T06:21:08.031Z,4416.00
2022-08-05T06:22:06.877Z,3632.00
2022-08-05T06:23:06.868Z,3340.00
2022-08-05T06:24:07.675Z,3084.00
2022-08-05T06:25:25.179Z,2936.00
2022-08-05T06:26:21.668Z,2904.00
2022-08-05T06:27:07.671Z,3044.00
2022-08-05T06:28:11.918Z,3028.00
2022-08-05T06:29:25.286Z,2872.00
2022-08-05T06:30:19.864Z,2936.00
2022-08-05T06:31:11.131Z,3000.00
2022-08-05T06:32:20.841Z,2976.00
2022-08-05T06:33:10.896Z,2688.00
2022-08-05T06:34:08.933Z,2280.00
2022-08-05T06:35:15.459Z,2084.00
2022-08-05T06:36:09.802Z,2072.00
2022-08-05T06:37:07.272Z,2212.00
2022-08-05T06:38:10.139Z,2348.00
2022-08-05T06:39:07.593Z,2368.00
2022-08-05T06:40:07.370Z,2304.00
2022-08-05T06:41:07.872Z,2248.00
2022-08-05T06:42:07.420Z,2260.00
2022-08-05T06:43:07.451Z,2292.00
2022-08-05T06:44:07.489Z,2376.00
2022-08-05T06:45:08.895Z,2336.00
2022-08-05T06:46:07.625Z,2228.00
2022-08-05T06:47:10.378Z,2240.00
2022-08-05T06:48:36.440Z,2392.00
2022-08-05T06:49:08.365Z,2632.00
2022-08-05T06:50:07.718Z,2804.00
2022-08-05T06:51:09.638Z,2964.00
2022-08-05T06:52:07.824Z,3164.00
2022-08-05T06:53:19.534Z,3180.00
2022-08-05T06:54:08.000Z,3220.00
2022-08-05T06:55:07.818Z,3172.00
2022-08-05T06:56:16.252Z,2984.00
2022-08-05T06:57:56.725Z,2848.00
2022-08-05T06:58:20.098Z,2836.00
2022-08-05T06:59:09.338Z,2648.00
2022-08-05T07:00:09.635Z,2360.00
2022-08-05T07:01:08.063Z,2008.00
2022-08-05T07:02:08.025Z,1692.00
2022-08-05T07:03:09.729Z,1520.00
2022-08-05T07:04:08.087Z,1384.00
2022-08-05T07:05:14.133Z,1372.00
2022-08-05T07:06:14.260Z,1576.00
2022-08-05T07:07:08.254Z,1808.00
2022-08-05T07:08:10.641Z,1924.00
2022-08-05T07:09:08.240Z,1948.00
2022-08-05T07:10:08.273Z,2040.00
2022-08-05T07:11:08.300Z,2200.00
2022-08-05T07:12:08.327Z,2352.00
2022-08-05T07:13:08.359Z,2436.00
2022-08-05T07:14:08.389Z,2472.00
2022-08-05T07:15:08.829Z,2644.00
2022-08-05T07:16:08.445Z,3764.00
2022-08-05T07:18:02.048Z,3784.00
2022-08-05T07:18:10.814Z,3264.00
2022-08-05T07:19:08.540Z,2848.00
2022-08-05T07:20:32.521Z,2776.00
2022-08-05T07:21:08.599Z,3084.00
2022-08-05T07:22:08.730Z,3360.00
2022-08-05T07:23:08.662Z,3380.00
2022-08-05T07:24:11.278Z,3540.00
2022-08-05T07:25:24.011Z,3696.00
2022-08-05T07:26:08.753Z,3456.00
2022-08-05T07:27:08.986Z,2792.00
2022-08-05T07:28:11.764Z,2376.00
2022-08-05T07:29:08.843Z,2260.00
2022-08-05T07:30:22.885Z,2224.00
2022-08-05T07:31:08.903Z,2352.00
2022-08-05T07:32:08.983Z,2512.00
2022-08-05T07:33:10.400Z,2592.00
2022-08-05T07:34:08.993Z,2736.00
2022-08-05T07:36:03.458Z,2376.00
2022-08-05T07:36:20.642Z,2392.00
2022-08-05T07:37:09.091Z,3236.00
2022-08-05T07:38:12.248Z,3688.00
2022-08-05T07:39:09.201Z,3028.00
2022-08-05T07:40:31.886Z,2972.00
2022-08-05T07:42:06.738Z,3156.00
2022-08-05T07:42:14.987Z,3384.00
2022-08-05T07:43:14.605Z,4024.00
2022-08-05T07:44:14.282Z,4440.00
2022-08-05T07:45:09.519Z,4156.00
2022-08-05T07:46:24.867Z,3176.00
2022-08-05T07:47:10.164Z,2528.00
2022-08-05T07:48:09.417Z,2548.00
2022-08-05T07:49:09.450Z,2604.00
2022-08-05T07:50:09.480Z,2704.00
2022-08-05T07:51:23.805Z,2792.00
2022-08-05T07:52:09.559Z,2588.00
2022-08-05T07:53:09.590Z,2188.00
2022-08-05T07:54:10.402Z,2140.00
2022-08-05T07:55:16.030Z,2320.00
2022-08-05T07:57:02.821Z,2784.00
2022-08-05T07:57:16.968Z,3200.00
2022-08-05T07:58:10.326Z,3060.00
2022-08-05T07:59:09.757Z,2888.00
2022-08-05T08:00:11.329Z,2796.00
2022-08-05T08:01:12.172Z,2452.00
2022-08-05T08:02:15.325Z,2296.00
2022-08-05T08:03:13.960Z,2288.00
2022-08-05T08:04:09.902Z,2876.00
2022-08-05T08:05:09.933Z,3288.00
2022-08-05T08:06:10.183Z,3076.00
2022-08-05T08:07:09.997Z,2676.00
2022-08-05T08:08:12.256Z,2568.00
2022-08-05T08:09:10.057Z,2740.00
2022-08-05T08:10:10.085Z,2700.00
2022-08-05T08:11:10.117Z,2648.00
2022-08-05T08:12:29.687Z,2312.00
2022-08-05T08:13:11.567Z,1864.00
2022-08-05T08:14:10.206Z,1804.00
2022-08-05T08:15:15.115Z,1960.00
2022-08-05T08:16:34.607Z,2140.00
2022-08-05T08:17:10.298Z,2320.00
2022-08-05T08:18:14.309Z,2692.00
2022-08-05T08:20:21.143Z,2924.00
2022-08-05T08:20:44.442Z,3008.00
2022-08-05T08:21:15.797Z,3156.00
2022-08-05T08:22:10.449Z,3304.00
2022-08-05T08:24:00.176Z,3512.00
2022-08-05T08:24:13.768Z,3600.00
2022-08-05T08:25:16.315Z,3776.00
2022-08-05T08:26:10.568Z,3996.00
2022-08-05T08:27:10.601Z,4080.00
2022-08-05T08:28:18.240Z,4008.00
2022-08-05T08:30:03.302Z,3928.00
2022-08-05T08:30:27.006Z,3700.00
2022-08-05T08:31:16.417Z,3372.00
2022-08-05T08:32:10.991Z,3824.00
2022-08-05T08:33:13.859Z,4476.00
2022-08-05T08:34:10.813Z,4616.00
2022-08-05T08:35:13.377Z,4056.00
2022-08-05T08:36:38.556Z,3092.00
2022-08-05T08:37:10.901Z,2564.00
2022-08-05T08:38:16.434Z,1952.00
2022-08-05T08:39:15.423Z,2032.00
2022-08-05T08:40:10.996Z,2452.00
2022-08-05T08:41:11.022Z,2252.00
2022-08-05T08:42:32.303Z,1996.00
2022-08-05T08:45:16.448Z,1588.00
2022-08-05T08:45:21.057Z,1604.00
2022-08-05T08:45:23.703Z,1444.00
2022-08-05T08:46:16.205Z,1252.00
2022-08-05T08:47:47.747Z,1316.00
2022-08-05T08:48:22.748Z,1332.00
2022-08-05T08:50:06.011Z,1288.00
2022-08-05T08:50:30.529Z,1228.00
2022-08-05T08:51:54.561Z,1208.00
2022-08-05T08:52:13.800Z,1288.00
2022-08-05T08:53:12.346Z,1324.00
2022-08-05T08:54:11.411Z,1404.00
2022-08-05T08:55:13.426Z,1272.00
2022-08-05T08:56:11.472Z,1244.00
2022-08-05T08:57:13.399Z,1240.00
2022-08-05T08:58:13.241Z,1156.00
2022-08-05T08:59:14.893Z,1064.00
2022-08-05T09:00:11.592Z,1108.00
2022-08-05T09:01:16.321Z,1304.00
2022-08-05T09:02:11.655Z,1272.00
2022-08-05T09:03:11.714Z,1308.00
2022-08-05T09:04:11.909Z,1232.00
2022-08-05T09:05:17.755Z,1232.00
2022-08-05T09:06:15.767Z,1168.00
2022-08-05T09:07:28.256Z,1240.00
2022-08-05T09:08:11.829Z,1328.00
2022-08-05T09:09:11.862Z,1380.00
2022-08-05T09:10:11.904Z,1528.00
2022-08-05T09:11:12.089Z,1680.00
2022-08-05T09:12:20.626Z,1736.00
2022-08-05T09:13:11.980Z,1440.00
2022-08-05T09:14:57.460Z,1264.00
2022-08-05T09:15:12.040Z,1200.00
2022-08-05T09:16:16.742Z,1200.00
2022-08-05T09:17:42.810Z,1264.00
2022-08-05T09:18:13.472Z,1320.00
2022-08-05T09:19:12.160Z,1324.00
2022-08-05T09:20:12.194Z,1532.00
2022-08-05T09:21:20.793Z,1628.00
2022-08-05T09:22:22.656Z,1696.00
2022-08-05T09:23:19.792Z,1940.00
2022-08-05T09:24:12.307Z,2320.00
2022-08-05T09:25:14.041Z,2836.00
2022-08-05T09:26:20.498Z,3960.00
2022-08-05T09:27:12.397Z,5276.00
2022-08-05T09:28:13.047Z,6336.00
2022-08-05T09:29:16.254Z,6236.00
2022-08-05T09:30:16.563Z,5076.00
2022-08-05T09:31:44.023Z,5004.00
2022-08-05T09:32:41.354Z,4408.00
2022-08-05T09:33:15.388Z,4108.00
2022-08-05T09:34:13.088Z,3816.00
2022-08-05T09:35:12.635Z,3772.00
2022-08-05T09:36:16.635Z,3820.00
2022-08-05T09:37:15.272Z,4396.00
2022-08-05T09:38:18.323Z,3756.00
2022-08-05T09:39:16.513Z,3784.00
2022-08-05T09:40:12.911Z,4508.00
2022-08-05T09:41:12.812Z,6256.00
2022-08-05T09:42:17.377Z,5828.00
2022-08-05T09:43:12.873Z,6648.00
2022-08-05T09:44:12.900Z,6572.00
2022-08-05T09:46:04.597Z,6028.00
2022-08-05T09:46:12.960Z,6444.00
2022-08-05T09:47:15.660Z,4752.00
2022-08-05T09:48:13.018Z,4192.00
2022-08-05T09:49:19.035Z,5284.00
2022-08-05T09:50:13.078Z,4368.00
2022-08-05T09:51:14.852Z,5096.00
2022-08-05T09:52:13.137Z,4328.00
2022-08-05T09:53:23.055Z,4444.00
2022-08-05T09:54:13.196Z,4592.00
2022-08-05T09:55:57.128Z,4336.00
2022-08-05T09:56:13.665Z,4556.00
2022-08-05T09:57:23.393Z,5712.00
2022-08-05T09:58:13.316Z,6764.00
2022-08-05T09:59:16.861Z,6236.00
2022-08-05T10:00:13.374Z,5652.00
2022-08-05T10:01:15.683Z,6596.00
2022-08-05T10:02:13.454Z,8668.00
2022-08-05T10:03:13.466Z,9900.00
2022-08-05T10:04:13.567Z,9640.00
2022-08-05T10:05:13.528Z,9792.00
2022-08-05T10:06:15.800Z,9088.00
2022-08-05T10:07:21.040Z,7332.00
2022-08-05T10:08:36.247Z,6588.00
2022-08-05T10:09:27.303Z,6352.00
2022-08-05T10:10:17.868Z,7100.00
2022-08-05T10:11:13.703Z,6772.00
2022-08-05T10:12:31.091Z,6032.00
2022-08-05T10:13:14.643Z,4792.00
2022-08-05T10:14:13.791Z,4232.00
2022-08-05T10:15:13.822Z,3500.00
2022-08-05T10:16:13.850Z,3144.00
2022-08-05T10:17:14.137Z,3164.00
2022-08-05T10:18:13.938Z,3076.00
2022-08-05T10:19:13.952Z,3604.00
2022-08-05T10:20:14.023Z,4536.00
2022-08-05T10:21:16.289Z,3600.00
2022-08-05T10:22:29.413Z,3336.00
2022-08-05T10:23:34.563Z,3692.00
2022-08-05T10:24:15.137Z,4136.00
2022-08-05T10:25:14.436Z,4644.00
2022-08-05T10:26:15.062Z,5112.00
2022-08-05T10:27:14.200Z,5064.00
2022-08-05T10:28:19.251Z,4472.00
2022-08-05T10:29:14.237Z,4676.00
2022-08-05T10:31:21.066Z,5120.00
2022-08-05T10:32:48.911Z,5148.00
2022-08-05T10:33:00.971Z,5296.00
2022-08-05T10:33:14.874Z,5208.00
2022-08-05T10:34:14.390Z,5580.00
2022-08-05T10:35:14.415Z,5720.00
2022-08-05T10:36:14.448Z,5692.00
2022-08-05T10:37:14.477Z,4888.00
2022-08-05T10:38:14.506Z,5340.00
2022-08-05T10:39:24.513Z,6520.00
2022-08-05T10:40:19.465Z,8320.00
2022-08-05T10:41:14.688Z,8292.00
2022-08-05T10:42:14.624Z,6760.00
2022-08-05T10:43:14.652Z,7420.00
2022-08-05T10:44:14.683Z,7624.00
2022-08-05T10:45:24.059Z,7488.00
2022-08-05T10:46:14.745Z,7112.00
2022-08-05T10:47:27.004Z,6768.00
2022-08-05T10:48:30.115Z,6328.00
2022-08-05T10:49:16.794Z,6972.00
2022-08-05T10:50:32.225Z,7288.00
2022-08-05T10:51:22.520Z,7812.00
2022-08-05T10:52:14.920Z,8076.00
2022-08-05T10:53:14.948Z,7544.00
2022-08-05T10:54:23.027Z,6584.00
2022-08-05T10:55:16.005Z,5804.00
2022-08-05T10:56:25.098Z,5604.00
2022-08-05T10:57:15.068Z,4928.00
2022-08-05T10:58:15.745Z,5236.00
2022-08-05T11:00:02.451Z,5452.00
2022-08-05T11:00:19.632Z,5416.00
2022-08-05T11:01:15.193Z,5924.00
2022-08-05T11:02:34.652Z,5768.00
2022-08-05T11:03:25.464Z,5268.00
2022-08-05T11:04:15.278Z,5208.00
2022-08-05T11:05:18.211Z,5620.00
2022-08-05T11:06:17.617Z,6148.00
2022-08-05T11:07:15.369Z,6336.00
2022-08-05T11:08:36.671Z,6308.00
2022-08-05T11:09:16.602Z,6324.00
2022-08-05T11:10:15.456Z,6996.00
2022-08-05T11:11:16.821Z,8096.00
2022-08-05T11:12:15.633Z,8928.00
2022-08-05T11:13:15.544Z,9668.00
2022-08-05T11:14:15.577Z,9080.00
2022-08-05T11:15:19.218Z,8636.00
2022-08-05T11:16:15.635Z,9404.00
2022-08-05T11:17:59.228Z,11460.00
2022-08-05T11:18:16.027Z,12584.00
2022-08-05T11:20:15.756Z,12180.00
2022-08-05T11:20:16.575Z,12772.00
2022-08-05T11:21:15.786Z,9968.00
2022-08-05T11:22:15.817Z,8960.00
2022-08-05T11:23:15.846Z,9868.00
2022-08-05T11:24:30.626Z,11756.00
2022-08-05T11:26:03.604Z,12664.00
2022-08-05T11:26:15.937Z,12848.00
2022-08-05T11:27:16.012Z,11768.00
2022-08-05T11:28:17.135Z,12088.00
2022-08-05T11:29:16.028Z,13172.00
2022-08-05T11:30:16.058Z,13640.00
2022-08-05T11:31:19.648Z,14556.00
2022-08-05T11:32:16.116Z,13768.00
2022-08-05T11:33:21.234Z,12940.00
2022-08-05T11:34:18.995Z,11764.00
2022-08-05T11:35:18.827Z,11648.00
2022-08-05T11:36:16.235Z,11348.00
2022-08-05T11:38:28.525Z,14648.00
2022-08-05T11:38:30.297Z,14304.00
2022-08-05T11:39:16.401Z,13592.00
2022-08-05T11:40:19.596Z,12516.00
2022-08-05T11:41:56.525Z,11392.00
2022-08-05T11:43:19.007Z,11040.00
2022-08-05T11:44:40.780Z,10128.00
2022-08-05T11:46:14.711Z,10524.00
2022-08-05T11:46:32.718Z,8124.00
2022-08-05T11:47:22.006Z,7936.00
2022-08-05T11:48:19.170Z,8708.00
2022-08-05T11:49:19.186Z,10416.00
2022-08-05T11:50:19.218Z,11364.00
2022-08-05T11:51:43.550Z,11780.00
2022-08-05T11:52:19.294Z,10412.00
2022-08-05T11:53:19.310Z,10760.00
2022-08-05T11:54:19.343Z,11216.00
2022-08-05T11:55:19.379Z,11168.00
2022-08-05T11:56:19.402Z,11108.00
2022-08-05T11:57:24.785Z,11764.00
2022-08-05T11:58:19.637Z,12128.00
2022-08-05T11:59:21.312Z,12700.00
2022-08-05T12:00:19.526Z,12864.00
2022-08-05T12:01:19.558Z,11404.00
2022-08-05T12:02:29.936Z,11636.00
2022-08-05T12:03:29.630Z,13312.00
2022-08-05T12:04:19.651Z,12424.00
2022-08-05T12:05:19.681Z,11060.00
2022-08-05T12:06:19.715Z,8332.00
2022-08-05T12:08:03.144Z,7172.00
2022-08-05T12:08:19.776Z,7376.00
2022-08-05T12:09:20.253Z,8664.00
2022-08-05T12:10:19.841Z,8444.00
2022-08-05T12:11:20.247Z,6844.00
2022-08-05T12:12:19.917Z,6640.00
2022-08-05T12:13:47.888Z,6788.00
2022-08-05T12:14:19.966Z,8292.00
2022-08-05T12:15:19.995Z,6560.00
2022-08-05T12:16:20.029Z,6040.00
2022-08-05T12:18:03.885Z,7228.00
2022-08-05T12:18:20.760Z,7120.00
2022-08-05T12:20:26.796Z,7116.00
2022-08-05T12:20:30.658Z,6224.00
2022-08-05T12:21:20.182Z,4860.00
2022-08-05T12:22:20.296Z,5920.00
2022-08-05T12:24:27.860Z,5756.00
2022-08-05T12:25:28.536Z,6232.00
2022-08-05T12:26:27.918Z,6364.00
2022-08-05T12:27:33.090Z,6100.00
2022-08-05T12:28:27.982Z,6680.00
2022-08-05T12:29:28.014Z,6044.00
2022-08-05T12:30:32.061Z,6224.00
2022-08-05T12:31:32.710Z,5984.00
2022-08-05T12:32:28.103Z,6492.00
2022-08-05T12:33:36.456Z,6316.00
2022-08-05T12:34:28.175Z,6968.00
2022-08-05T12:35:37.008Z,6280.00
2022-08-05T12:36:28.320Z,6836.00
2022-08-05T12:37:30.036Z,6844.00
2022-08-05T12:38:31.360Z,5456.00
2022-08-05T12:39:37.315Z,5544.00
2022-08-05T12:40:28.797Z,6120.00
2022-08-05T12:41:34.581Z,6036.00
2022-08-05T12:42:28.417Z,6412.00
2022-08-05T12:43:32.231Z,7448.00
2022-08-05T12:44:33.275Z,8532.00
2022-08-05T12:45:42.444Z,7684.00
2022-08-05T12:46:29.679Z,8536.00
2022-08-05T12:47:30.433Z,8612.00
2022-08-05T12:48:32.585Z,8556.00
2022-08-05T12:49:28.641Z,8684.00
2022-08-05T12:50:30.852Z,8860.00
2022-08-05T12:52:13.746Z,9272.00
2022-08-05T12:52:35.329Z,9312.00
2022-08-05T12:53:37.022Z,8636.00
2022-08-05T12:54:28.793Z,9132.00
2022-08-05T12:55:28.825Z,10056.00
2022-08-05T12:56:35.313Z,10296.00
2022-08-05T12:57:28.889Z,10160.00
2022-08-05T12:58:49.557Z,10564.00
2022-08-05T13:00:08.415Z,11744.00
2022-08-05T13:01:59.784Z,10992.00
2022-08-05T13:02:02.435Z,11084.00
2022-08-05T13:02:30.486Z,10956.00
2022-08-05T13:03:32.480Z,11252.00
2022-08-05T13:04:29.108Z,10204.00
2022-08-05T13:05:37.430Z,10548.00
2022-08-05T13:06:29.172Z,9156.00
2022-08-05T13:07:57.536Z,8612.00
2022-08-05T13:08:29.234Z,8356.00
2022-08-05T13:09:29.263Z,9784.00
2022-08-05T13:11:12.929Z,8648.00
2022-08-05T13:12:13.267Z,8748.00
2022-08-05T13:13:12.995Z,8044.00
2022-08-05T13:14:14.830Z,8252.00
2022-08-05T13:15:16.525Z,8272.00
2022-08-05T13:16:13.084Z,7784.00
2022-08-05T13:17:13.131Z,7620.00
2022-08-05T13:18:13.148Z,7520.00
2022-08-05T13:19:13.181Z,7148.00
2022-08-05T13:20:13.212Z,6824.00
2022-08-05T13:21:13.252Z,6372.00
2022-08-05T13:22:13.291Z,6280.00
2022-08-05T13:23:13.307Z,6420.00
2022-08-05T13:25:19.384Z,6812.00
2022-08-05T13:26:13.400Z,7204.00
2022-08-05T13:27:17.086Z,7768.00
2022-08-05T13:28:14.220Z,8028.00
2022-08-05T13:29:19.028Z,8092.00
2022-08-05T13:30:35.399Z,8036.00
2022-08-05T13:31:14.435Z,7504.00
2022-08-05T13:32:13.592Z,7500.00